sensor_id;sensor_type;location;lat;lon;timestamp;P1;durP1;ratioP1;P2;durP2;ratioP2
13807;SDS011;40769;51.512;5.494;2023-03-04T00:02:23;8.43;;;2.72;;
13807;SDS011;40769;51.512;5.494;2023-03-04T00:04:48;4.57;;;2.40;;
13807;SDS011;40769;51.512;5.494;2023-03-04T00:07:14;6.30;;;2.42;;
13807;SDS011;40769;51.512;5.494;2023-03-04T00:09:44;7.22;;;2.67;;
13807;SDS011;40769;51.512;5.494;2023-03-04T00:12:10;5.40;;;2.10;;
13807;SDS011;40769;51.512;5.494;2023-03-04T00:14:35;5.45;;;2.35;;
13807;SDS011;40769;51.512;5.494;2023-03-04T00:17:01;4.63;;;2.15;;
13807;SDS011;40769;51.512;5.494;2023-03-04T00:19:28;4.25;;;1.80;;
13807;SDS011;40769;51.512;5.494;2023-03-04T00:21:54;6.32;;;2.40;;
13807;SDS011;40769;51.512;5.494;2023-03-04T00:24:20;6.22;;;2.38;;
13807;SDS011;40769;51.512;5.494;2023-03-04T00:26:45;8.68;;;2.45;;
13807;SDS011;40769;51.512;5.494;2023-03-04T00:29:11;6.47;;;2.30;;
13807;SDS011;40769;51.512;5.494;2023-03-04T00:31:36;5.97;;;2.38;;
13807;SDS011;40769;51.512;5.494;2023-03-04T00:34:02;2.45;;;1.45;;
13807;SDS011;40769;51.512;5.494;2023-03-04T00:36:28;4.35;;;1.88;;
13807;SDS011;40769;51.512;5.494;2023-03-04T00:38:53;5.70;;;2.17;;
13807;SDS011;40769;51.512;5.494;2023-03-04T00:41:19;3.92;;;1.33;;
13807;SDS011;40769;51.512;5.494;2023-03-04T00:43:44;4.38;;;1.52;;
13807;SDS011;40769;51.512;5.494;2023-03-04T00:46:10;6.43;;;2.28;;
13807;SDS011;40769;51.512;5.494;2023-03-04T00:48:35;6.82;;;2.40;;
13807;SDS011;40769;51.512;5.494;2023-03-04T00:51:02;3.05;;;1.23;;
13807;SDS011;40769;51.512;5.494;2023-03-04T00:53:28;3.45;;;1.42;;
13807;SDS011;40769;51.512;5.494;2023-03-04T00:55:54;4.50;;;1.58;;
13807;SDS011;40769;51.512;5.494;2023-03-04T00:58:19;4.15;;;1.73;;
13807;SDS011;40769;51.512;5.494;2023-03-04T01:00:45;6.97;;;1.98;;
13807;SDS011;40769;51.512;5.494;2023-03-04T01:03:11;5.10;;;2.05;;
13807;SDS011;40769;51.512;5.494;2023-03-04T01:05:36;4.60;;;2.00;;
13807;SDS011;40769;51.512;5.494;2023-03-04T01:08:02;5.57;;;2.30;;
13807;SDS011;40769;51.512;5.494;2023-03-04T01:10:29;4.38;;;1.75;;
13807;SDS011;40769;51.512;5.494;2023-03-04T01:12:54;4.95;;;1.75;;
13807;SDS011;40769;51.512;5.494;2023-03-04T01:15:20;2.95;;;1.38;;
13807;SDS011;40769;51.512;5.494;2023-03-04T01:17:46;5.13;;;1.77;;
13807;SDS011;40769;51.512;5.494;2023-03-04T01:20:15;5.43;;;2.10;;
13807;SDS011;40769;51.512;5.494;2023-03-04T01:22:41;3.53;;;1.70;;
13807;SDS011;40769;51.512;5.494;2023-03-04T01:25:07;5.00;;;2.10;;
13807;SDS011;40769;51.512;5.494;2023-03-04T01:27:33;4.63;;;2.50;;
13807;SDS011;40769;51.512;5.494;2023-03-04T01:29:58;3.20;;;1.85;;
13807;SDS011;40769;51.512;5.494;2023-03-04T01:32:24;4.35;;;1.30;;
13807;SDS011;40769;51.512;5.494;2023-03-04T01:34:49;6.57;;;2.25;;
13807;SDS011;40769;51.512;5.494;2023-03-04T01:37:15;4.32;;;1.80;;
13807;SDS011;40769;51.512;5.494;2023-03-04T01:39:41;7.53;;;2.08;;
13807;SDS011;40769;51.512;5.494;2023-03-04T01:42:09;5.63;;;2.20;;
13807;SDS011;40769;51.512;5.494;2023-03-04T01:44:42;5.05;;;2.35;;
13807;SDS011;40769;51.512;5.494;2023-03-04T01:47:08;4.85;;;2.38;;
13807;SDS011;40769;51.512;5.494;2023-03-04T01:49:35;6.13;;;2.28;;
13807;SDS011;40769;51.512;5.494;2023-03-04T01:52:00;7.50;;;2.35;;
13807;SDS011;40769;51.512;5.494;2023-03-04T01:54:26;5.07;;;1.98;;
13807;SDS011;40769;51.512;5.494;2023-03-04T01:56:51;5.93;;;2.30;;
13807;SDS011;40769;51.512;5.494;2023-03-04T01:59:19;7.03;;;2.42;;
13807;SDS011;40769;51.512;5.494;2023-03-04T02:01:50;4.05;;;1.73;;
13807;SDS011;40769;51.512;5.494;2023-03-04T02:04:28;3.28;;;1.55;;
13807;SDS011;40769;51.512;5.494;2023-03-04T02:06:55;5.65;;;2.05;;
13807;SDS011;40769;51.512;5.494;2023-03-04T02:09:23;4.45;;;1.55;;
13807;SDS011;40769;51.512;5.494;2023-03-04T02:11:49;3.65;;;1.50;;
13807;SDS011;40769;51.512;5.494;2023-03-04T02:14:16;4.40;;;2.08;;
13807;SDS011;40769;51.512;5.494;2023-03-04T02:16:43;5.35;;;1.98;;
13807;SDS011;40769;51.512;5.494;2023-03-04T02:22:09;3.47;;;1.50;;
13807;SDS011;40769;51.512;5.494;2023-03-04T02:24:40;8.57;;;2.00;;
13807;SDS011;40769;51.512;5.494;2023-03-04T02:27:20;6.78;;;1.90;;
13807;SDS011;40769;51.512;5.494;2023-03-04T02:29:45;4.57;;;1.90;;
13807;SDS011;40769;51.512;5.494;2023-03-04T02:32:11;3.42;;;1.38;;
13807;SDS011;40769;51.512;5.494;2023-03-04T02:34:39;5.70;;;1.73;;
13807;SDS011;40769;51.512;5.494;2023-03-04T02:37:14;5.60;;;2.10;;
13807;SDS011;40769;51.512;5.494;2023-03-04T02:39:45;5.80;;;2.08;;
13807;SDS011;40769;51.512;5.494;2023-03-04T02:42:12;5.43;;;2.20;;
13807;SDS011;40769;51.512;5.494;2023-03-04T02:44:39;4.95;;;1.90;;
13807;SDS011;40769;51.512;5.494;2023-03-04T02:47:08;4.75;;;1.70;;
13807;SDS011;40769;51.512;5.494;2023-03-04T02:49:35;4.45;;;1.98;;
13807;SDS011;40769;51.512;5.494;2023-03-04T02:52:03;3.97;;;1.70;;
13807;SDS011;40769;51.512;5.494;2023-03-04T02:54:31;3.92;;;1.58;;
13807;SDS011;40769;51.512;5.494;2023-03-04T02:57:00;4.28;;;1.50;;
13807;SDS011;40769;51.512;5.494;2023-03-04T02:59:28;4.78;;;1.60;;
13807;SDS011;40769;51.512;5.494;2023-03-04T03:01:54;3.53;;;1.48;;
13807;SDS011;40769;51.512;5.494;2023-03-04T03:04:20;5.00;;;1.92;;
13807;SDS011;40769;51.512;5.494;2023-03-04T03:06:47;4.68;;;1.92;;
13807;SDS011;40769;51.512;5.494;2023-03-04T03:09:13;3.58;;;1.60;;
13807;SDS011;40769;51.512;5.494;2023-03-04T03:11:41;3.30;;;1.63;;
13807;SDS011;40769;51.512;5.494;2023-03-04T03:14:07;3.40;;;1.25;;
13807;SDS011;40769;51.512;5.494;2023-03-04T03:16:33;4.20;;;1.77;;
13807;SDS011;40769;51.512;5.494;2023-03-04T03:18:59;3.45;;;1.67;;
13807;SDS011;40769;51.512;5.494;2023-03-04T03:21:24;5.82;;;2.10;;
13807;SDS011;40769;51.512;5.494;2023-03-04T03:23:50;3.88;;;1.73;;
13807;SDS011;40769;51.512;5.494;2023-03-04T03:26:16;4.88;;;1.65;;
13807;SDS011;40769;51.512;5.494;2023-03-04T03:28:42;2.78;;;1.40;;
13807;SDS011;40769;51.512;5.494;2023-03-04T03:31:08;6.35;;;1.90;;
13807;SDS011;40769;51.512;5.494;2023-03-04T03:33:33;3.90;;;1.70;;
13807;SDS011;40769;51.512;5.494;2023-03-04T03:35:59;4.47;;;1.70;;
13807;SDS011;40769;51.512;5.494;2023-03-04T03:38:25;4.50;;;1.60;;
13807;SDS011;40769;51.512;5.494;2023-03-04T03:40:51;4.25;;;1.92;;
13807;SDS011;40769;51.512;5.494;2023-03-04T03:43:17;4.68;;;1.35;;
13807;SDS011;40769;51.512;5.494;2023-03-04T03:45:43;4.95;;;1.50;;
13807;SDS011;40769;51.512;5.494;2023-03-04T03:48:09;3.58;;;1.38;;
13807;SDS011;40769;51.512;5.494;2023-03-04T03:50:34;5.47;;;1.70;;
13807;SDS011;40769;51.512;5.494;2023-03-04T03:53:00;4.65;;;1.80;;
13807;SDS011;40769;51.512;5.494;2023-03-04T03:55:26;5.43;;;1.67;;
13807;SDS011;40769;51.512;5.494;2023-03-04T03:57:51;3.33;;;1.50;;
13807;SDS011;40769;51.512;5.494;2023-03-04T04:00:17;3.85;;;1.73;;
13807;SDS011;40769;51.512;5.494;2023-03-04T04:02:43;4.80;;;1.70;;
13807;SDS011;40769;51.512;5.494;2023-03-04T04:05:09;3.97;;;1.70;;
13807;SDS011;40769;51.512;5.494;2023-03-04T04:07:36;2.83;;;1.40;;
13807;SDS011;40769;51.512;5.494;2023-03-04T04:10:05;5.15;;;1.90;;
13807;SDS011;40769;51.512;5.494;2023-03-04T04:12:31;3.35;;;1.45;;
13807;SDS011;40769;51.512;5.494;2023-03-04T04:14:57;3.40;;;1.70;;
13807;SDS011;40769;51.512;5.494;2023-03-04T04:17:23;3.75;;;1.80;;
13807;SDS011;40769;51.512;5.494;2023-03-04T04:19:48;4.70;;;1.85;;
13807;SDS011;40769;51.512;5.494;2023-03-04T04:22:15;4.10;;;1.52;;
13807;SDS011;40769;51.512;5.494;2023-03-04T04:24:42;5.75;;;1.80;;
13807;SDS011;40769;51.512;5.494;2023-03-04T04:27:08;4.70;;;1.80;;
13807;SDS011;40769;51.512;5.494;2023-03-04T04:29:34;4.70;;;1.83;;
13807;SDS011;40769;51.512;5.494;2023-03-04T04:32:00;4.05;;;1.80;;
13807;SDS011;40769;51.512;5.494;2023-03-04T04:34:25;5.03;;;1.90;;
13807;SDS011;40769;51.512;5.494;2023-03-04T04:36:51;5.28;;;1.90;;
13807;SDS011;40769;51.512;5.494;2023-03-04T04:39:17;7.95;;;2.10;;
13807;SDS011;40769;51.512;5.494;2023-03-04T04:41:43;4.78;;;2.10;;
13807;SDS011;40769;51.512;5.494;2023-03-04T04:44:09;5.88;;;2.00;;
13807;SDS011;40769;51.512;5.494;2023-03-04T04:46:36;7.45;;;1.85;;
13807;SDS011;40769;51.512;5.494;2023-03-04T04:49:02;5.25;;;1.88;;
13807;SDS011;40769;51.512;5.494;2023-03-04T04:51:29;4.97;;;1.80;;
13807;SDS011;40769;51.512;5.494;2023-03-04T04:53:54;4.78;;;1.75;;
13807;SDS011;40769;51.512;5.494;2023-03-04T04:56:22;3.60;;;1.88;;
13807;SDS011;40769;51.512;5.494;2023-03-04T04:58:50;4.82;;;1.52;;
13807;SDS011;40769;51.512;5.494;2023-03-04T05:01:16;7.40;;;2.05;;
13807;SDS011;40769;51.512;5.494;2023-03-04T05:03:42;5.22;;;2.05;;
13807;SDS011;40769;51.512;5.494;2023-03-04T05:06:08;6.82;;;2.08;;
13807;SDS011;40769;51.512;5.494;2023-03-04T05:08:35;5.38;;;1.88;;
13807;SDS011;40769;51.512;5.494;2023-03-04T05:11:01;4.95;;;1.52;;
13807;SDS011;40769;51.512;5.494;2023-03-04T05:13:28;3.58;;;1.65;;
13807;SDS011;40769;51.512;5.494;2023-03-04T05:15:54;5.05;;;1.95;;
13807;SDS011;40769;51.512;5.494;2023-03-04T05:18:21;3.78;;;1.45;;
13807;SDS011;40769;51.512;5.494;2023-03-04T05:20:49;2.88;;;1.30;;
13807;SDS011;40769;51.512;5.494;2023-03-04T05:23:19;4.68;;;1.42;;
13807;SDS011;40769;51.512;5.494;2023-03-04T05:25:45;4.63;;;1.70;;
13807;SDS011;40769;51.512;5.494;2023-03-04T05:28:10;3.30;;;1.50;;
13807;SDS011;40769;51.512;5.494;2023-03-04T05:30:39;4.88;;;1.73;;
13807;SDS011;40769;51.512;5.494;2023-03-04T05:33:07;7.53;;;2.20;;
13807;SDS011;40769;51.512;5.494;2023-03-04T05:35:34;3.83;;;1.90;;
13807;SDS011;40769;51.512;5.494;2023-03-04T05:38:00;4.72;;;1.73;;
13807;SDS011;40769;51.512;5.494;2023-03-04T05:40:27;6.38;;;2.20;;
13807;SDS011;40769;51.512;5.494;2023-03-04T05:42:53;4.32;;;1.90;;
13807;SDS011;40769;51.512;5.494;2023-03-04T05:45:18;5.60;;;1.60;;
13807;SDS011;40769;51.512;5.494;2023-03-04T05:47:44;3.75;;;2.00;;
13807;SDS011;40769;51.512;5.494;2023-03-04T05:50:10;6.22;;;1.63;;
13807;SDS011;40769;51.512;5.494;2023-03-04T05:52:36;4.05;;;1.65;;
13807;SDS011;40769;51.512;5.494;2023-03-04T05:55:01;4.00;;;1.83;;
13807;SDS011;40769;51.512;5.494;2023-03-04T05:57:27;3.47;;;1.70;;
13807;SDS011;40769;51.512;5.494;2023-03-04T05:59:53;3.92;;;1.55;;
13807;SDS011;40769;51.512;5.494;2023-03-04T06:02:18;4.05;;;1.83;;
13807;SDS011;40769;51.512;5.494;2023-03-04T06:04:44;5.35;;;1.52;;
13807;SDS011;40769;51.512;5.494;2023-03-04T06:07:09;3.67;;;1.67;;
13807;SDS011;40769;51.512;5.494;2023-03-04T06:09:35;4.35;;;1.42;;
13807;SDS011;40769;51.512;5.494;2023-03-04T06:12:01;5.03;;;1.80;;
13807;SDS011;40769;51.512;5.494;2023-03-04T06:14:26;2.72;;;1.15;;
13807;SDS011;40769;51.512;5.494;2023-03-04T06:16:52;3.63;;;1.60;;
13807;SDS011;40769;51.512;5.494;2023-03-04T06:19:17;4.47;;;1.85;;
13807;SDS011;40769;51.512;5.494;2023-03-04T06:21:43;6.43;;;1.98;;
13807;SDS011;40769;51.512;5.494;2023-03-04T06:24:09;4.30;;;1.30;;
13807;SDS011;40769;51.512;5.494;2023-03-04T06:26:37;3.67;;;1.60;;
13807;SDS011;40769;51.512;5.494;2023-03-04T06:29:04;3.47;;;1.98;;
13807;SDS011;40769;51.512;5.494;2023-03-04T06:31:30;2.95;;;1.42;;
13807;SDS011;40769;51.512;5.494;2023-03-04T06:33:56;2.25;;;1.45;;
13807;SDS011;40769;51.512;5.494;2023-03-04T06:36:21;2.03;;;1.17;;
13807;SDS011;40769;51.512;5.494;2023-03-04T06:38:47;3.63;;;1.20;;
13807;SDS011;40769;51.512;5.494;2023-03-04T06:41:12;3.35;;;1.30;;
13807;SDS011;40769;51.512;5.494;2023-03-04T06:43:38;4.50;;;1.50;;
13807;SDS011;40769;51.512;5.494;2023-03-04T06:46:05;2.72;;;1.30;;
13807;SDS011;40769;51.512;5.494;2023-03-04T06:48:31;5.32;;;1.40;;
13807;SDS011;40769;51.512;5.494;2023-03-04T06:50:57;4.55;;;1.20;;
13807;SDS011;40769;51.512;5.494;2023-03-04T06:53:22;3.38;;;1.20;;
13807;SDS011;40769;51.512;5.494;2023-03-04T06:55:48;2.63;;;1.15;;
13807;SDS011;40769;51.512;5.494;2023-03-04T06:58:14;3.42;;;1.30;;
13807;SDS011;40769;51.512;5.494;2023-03-04T07:00:41;2.10;;;1.10;;
13807;SDS011;40769;51.512;5.494;2023-03-04T07:03:08;2.65;;;1.20;;
13807;SDS011;40769;51.512;5.494;2023-03-04T07:05:35;3.05;;;1.27;;
13807;SDS011;40769;51.512;5.494;2023-03-04T07:08:00;3.22;;;1.40;;
13807;SDS011;40769;51.512;5.494;2023-03-04T07:10:26;3.00;;;1.27;;
13807;SDS011;40769;51.512;5.494;2023-03-04T07:12:52;4.22;;;1.40;;
13807;SDS011;40769;51.512;5.494;2023-03-04T07:15:17;3.22;;;1.48;;
13807;SDS011;40769;51.512;5.494;2023-03-04T07:17:43;4.80;;;1.40;;
13807;SDS011;40769;51.512;5.494;2023-03-04T07:20:09;2.15;;;1.30;;
13807;SDS011;40769;51.512;5.494;2023-03-04T07:22:35;2.95;;;1.45;;
13807;SDS011;40769;51.512;5.494;2023-03-04T07:25:00;3.00;;;1.50;;
13807;SDS011;40769;51.512;5.494;2023-03-04T07:27:26;3.28;;;1.30;;
13807;SDS011;40769;51.512;5.494;2023-03-04T07:29:51;2.92;;;1.30;;
13807;SDS011;40769;51.512;5.494;2023-03-04T07:32:17;2.70;;;1.40;;
13807;SDS011;40769;51.512;5.494;2023-03-04T07:34:43;4.10;;;1.63;;
13807;SDS011;40769;51.512;5.494;2023-03-04T07:37:08;3.55;;;1.55;;
13807;SDS011;40769;51.512;5.494;2023-03-04T07:39:34;2.88;;;1.42;;
13807;SDS011;40769;51.512;5.494;2023-03-04T07:41:59;6.00;;;1.77;;
13807;SDS011;40769;51.512;5.494;2023-03-04T07:44:25;3.22;;;1.40;;
13807;SDS011;40769;51.512;5.494;2023-03-04T07:46:50;2.50;;;1.45;;
13807;SDS011;40769;51.512;5.494;2023-03-04T07:49:16;3.05;;;1.30;;
13807;SDS011;40769;51.512;5.494;2023-03-04T07:51:42;2.58;;;1.45;;
13807;SDS011;40769;51.512;5.494;2023-03-04T07:54:08;3.42;;;1.23;;
13807;SDS011;40769;51.512;5.494;2023-03-04T07:56:34;2.97;;;1.33;;
13807;SDS011;40769;51.512;5.494;2023-03-04T07:59:00;3.15;;;1.67;;
13807;SDS011;40769;51.512;5.494;2023-03-04T08:01:34;3.95;;;1.70;;
13807;SDS011;40769;51.512;5.494;2023-03-04T08:04:01;3.95;;;1.67;;
13807;SDS011;40769;51.512;5.494;2023-03-04T08:06:28;3.00;;;1.42;;
13807;SDS011;40769;51.512;5.494;2023-03-04T08:09:02;1.95;;;1.05;;
13807;SDS011;40769;51.512;5.494;2023-03-04T08:11:30;1.90;;;1.20;;
13807;SDS011;40769;51.512;5.494;2023-03-04T08:13:57;3.63;;;1.50;;
13807;SDS011;40769;51.512;5.494;2023-03-04T08:16:23;2.92;;;1.50;;
13807;SDS011;40769;51.512;5.494;2023-03-04T08:18:51;3.33;;;1.60;;
13807;SDS011;40769;51.512;5.494;2023-03-04T08:21:19;2.78;;;1.65;;
13807;SDS011;40769;51.512;5.494;2023-03-04T08:23:45;3.95;;;1.88;;
13807;SDS011;40769;51.512;5.494;2023-03-04T08:26:23;2.65;;;1.52;;
13807;SDS011;40769;51.512;5.494;2023-03-04T08:28:51;2.92;;;1.13;;
13807;SDS011;40769;51.512;5.494;2023-03-04T08:31:18;3.72;;;1.60;;
13807;SDS011;40769;51.512;5.494;2023-03-04T08:33:44;3.70;;;1.65;;
13807;SDS011;40769;51.512;5.494;2023-03-04T08:36:11;3.50;;;1.70;;
13807;SDS011;40769;51.512;5.494;2023-03-04T08:38:37;3.92;;;1.60;;
13807;SDS011;40769;51.512;5.494;2023-03-04T08:41:03;6.10;;;2.00;;
13807;SDS011;40769;51.512;5.494;2023-03-04T08:43:29;3.88;;;1.75;;
13807;SDS011;40769;51.512;5.494;2023-03-04T08:45:55;3.25;;;2.03;;
13807;SDS011;40769;51.512;5.494;2023-03-04T08:48:21;2.58;;;1.42;;
13807;SDS011;40769;51.512;5.494;2023-03-04T08:50:48;3.00;;;1.67;;
13807;SDS011;40769;51.512;5.494;2023-03-04T08:53:14;3.83;;;1.80;;
13807;SDS011;40769;51.512;5.494;2023-03-04T08:55:40;2.92;;;1.60;;
13807;SDS011;40769;51.512;5.494;2023-03-04T08:58:07;4.88;;;2.00;;
13807;SDS011;40769;51.512;5.494;2023-03-04T09:00:34;2.58;;;1.52;;
13807;SDS011;40769;51.512;5.494;2023-03-04T09:03:01;3.38;;;1.60;;
13807;SDS011;40769;51.512;5.494;2023-03-04T09:05:28;4.05;;;1.73;;
13807;SDS011;40769;51.512;5.494;2023-03-04T09:07:54;3.40;;;1.73;;
13807;SDS011;40769;51.512;5.494;2023-03-04T09:10:19;2.42;;;1.30;;
13807;SDS011;40769;51.512;5.494;2023-03-04T09:12:45;3.25;;;1.73;;
13807;SDS011;40769;51.512;5.494;2023-03-04T09:15:11;2.55;;;1.00;;
13807;SDS011;40769;51.512;5.494;2023-03-04T09:17:37;1.92;;;1.23;;
13807;SDS011;40769;51.512;5.494;2023-03-04T09:20:04;2.97;;;1.25;;
13807;SDS011;40769;51.512;5.494;2023-03-04T09:22:32;4.85;;;1.63;;
13807;SDS011;40769;51.512;5.494;2023-03-04T09:24:58;4.57;;;1.45;;
13807;SDS011;40769;51.512;5.494;2023-03-04T09:27:24;4.72;;;1.70;;
13807;SDS011;40769;51.512;5.494;2023-03-04T09:29:49;2.65;;;1.40;;
13807;SDS011;40769;51.512;5.494;2023-03-04T09:32:15;2.35;;;1.40;;
13807;SDS011;40769;51.512;5.494;2023-03-04T09:34:41;2.92;;;1.52;;
13807;SDS011;40769;51.512;5.494;2023-03-04T09:37:07;3.08;;;1.83;;
13807;SDS011;40769;51.512;5.494;2023-03-04T09:39:32;3.28;;;2.00;;
13807;SDS011;40769;51.512;5.494;2023-03-04T09:41:58;3.53;;;2.15;;
13807;SDS011;40769;51.512;5.494;2023-03-04T09:44:29;3.72;;;2.22;;
13807;SDS011;40769;51.512;5.494;2023-03-04T09:47:05;3.33;;;2.28;;
13807;SDS011;40769;51.512;5.494;2023-03-04T09:49:43;1.90;;;1.65;;
13807;SDS011;40769;51.512;5.494;2023-03-04T10:00:13;3.30;;;2.40;;
13807;SDS011;40769;51.512;5.494;2023-03-04T10:02:52;2.67;;;1.95;;
13807;SDS011;40769;51.512;5.494;2023-03-04T10:11:03;3.08;;;1.60;;
13807;SDS011;40769;51.512;5.494;2023-03-04T10:14:22;3.95;;;1.70;;
13807;SDS011;40769;51.512;5.494;2023-03-04T10:16:33;1.73;;;1.15;;
13807;SDS011;40769;51.512;5.494;2023-03-04T10:19:31;2.03;;;1.50;;
13807;SDS011;40769;51.512;5.494;2023-03-04T10:22:35;2.67;;;1.60;;
13807;SDS011;40769;51.512;5.494;2023-03-04T10:27:49;3.17;;;1.83;;
13807;SDS011;40769;51.512;5.494;2023-03-04T10:33:16;2.60;;;1.40;;
13807;SDS011;40769;51.512;5.494;2023-03-04T10:35:48;2.28;;;1.45;;
13807;SDS011;40769;51.512;5.494;2023-03-04T10:38:20;2.47;;;1.30;;
13807;SDS011;40769;51.512;5.494;2023-03-04T10:40:47;3.08;;;1.58;;
13807;SDS011;40769;51.512;5.494;2023-03-04T10:43:14;2.13;;;1.27;;
13807;SDS011;40769;51.512;5.494;2023-03-04T10:45:41;2.13;;;1.58;;
13807;SDS011;40769;51.512;5.494;2023-03-04T10:48:09;1.40;;;1.30;;
13807;SDS011;40769;51.512;5.494;2023-03-04T10:50:46;4.32;;;1.35;;
13807;SDS011;40769;51.512;5.494;2023-03-04T10:53:21;1.40;;;1.02;;
13807;SDS011;40769;51.512;5.494;2023-03-04T10:55:54;1.55;;;0.90;;
13807;SDS011;40769;51.512;5.494;2023-03-04T10:58:20;2.35;;;1.40;;
13807;SDS011;40769;51.512;5.494;2023-03-04T11:01:04;1.75;;;1.17;;
13807;SDS011;40769;51.512;5.494;2023-03-04T11:03:31;3.05;;;1.30;;
13807;SDS011;40769;51.512;5.494;2023-03-04T11:06:03;2.05;;;1.25;;
13807;SDS011;40769;51.512;5.494;2023-03-04T11:08:31;2.72;;;1.30;;
13807;SDS011;40769;51.512;5.494;2023-03-04T11:10:56;1.50;;;1.38;;
13807;SDS011;40769;51.512;5.494;2023-03-04T11:13:23;1.83;;;1.25;;
13807;SDS011;40769;51.512;5.494;2023-03-04T11:15:51;1.58;;;1.10;;
13807;SDS011;40769;51.512;5.494;2023-03-04T11:18:18;1.73;;;1.00;;
13807;SDS011;40769;51.512;5.494;2023-03-04T11:20:48;2.25;;;1.00;;
13807;SDS011;40769;51.512;5.494;2023-03-04T11:23:16;1.30;;;1.05;;
13807;SDS011;40769;51.512;5.494;2023-03-04T11:25:49;3.45;;;1.20;;
13807;SDS011;40769;51.512;5.494;2023-03-04T11:28:25;1.95;;;1.23;;
13807;SDS011;40769;51.512;5.494;2023-03-04T11:31:00;2.15;;;1.48;;
13807;SDS011;40769;51.512;5.494;2023-03-04T11:33:34;3.72;;;1.23;;
13807;SDS011;40769;51.512;5.494;2023-03-04T11:39:19;2.22;;;1.23;;
13807;SDS011;40769;51.512;5.494;2023-03-04T11:44:53;1.50;;;1.40;;
13807;SDS011;40769;51.512;5.494;2023-03-04T12:04:39;1.73;;;1.30;;
13807;SDS011;40769;51.512;5.494;2023-03-04T12:07:05;1.90;;;1.27;;
13807;SDS011;40769;51.512;5.494;2023-03-04T12:10:17;1.98;;;1.42;;
13807;SDS011;40769;51.512;5.494;2023-03-04T12:18:36;1.42;;;1.10;;
13807;SDS011;40769;51.512;5.494;2023-03-04T12:27:10;1.20;;;1.10;;
13807;SDS011;40769;51.512;5.494;2023-03-04T12:40:32;1.33;;;1.13;;
13807;SDS011;40769;51.512;5.494;2023-03-04T12:43:07;1.17;;;1.08;;
13807;SDS011;40769;51.512;5.494;2023-03-04T12:48:31;1.42;;;1.33;;
13807;SDS011;40769;51.512;5.494;2023-03-04T12:57:00;1.27;;;1.08;;
13807;SDS011;40769;51.512;5.494;2023-03-04T12:59:38;1.30;;;1.20;;
13807;SDS011;40769;51.512;5.494;2023-03-04T13:02:22;1.45;;;1.35;;
13807;SDS011;40769;51.512;5.494;2023-03-04T13:05:18;1.35;;;1.25;;
13807;SDS011;40769;51.512;5.494;2023-03-04T13:10:39;1.42;;;1.33;;
13807;SDS011;40769;51.512;5.494;2023-03-04T13:13:15;1.50;;;1.40;;
13807;SDS011;40769;51.512;5.494;2023-03-04T13:18:43;2.08;;;1.60;;
13807;SDS011;40769;51.512;5.494;2023-03-04T13:23:38;1.85;;;1.50;;
13807;SDS011;40769;51.512;5.494;2023-03-04T13:26:26;1.63;;;1.52;;
13807;SDS011;40769;51.512;5.494;2023-03-04T13:29:38;1.50;;;1.40;;
13807;SDS011;40769;51.512;5.494;2023-03-04T13:34:46;1.98;;;1.75;;
13807;SDS011;40769;51.512;5.494;2023-03-04T13:37:31;1.77;;;1.67;;
13807;SDS011;40769;51.512;5.494;2023-03-04T13:42:44;2.28;;;1.48;;
13807;SDS011;40769;51.512;5.494;2023-03-04T13:48:02;1.80;;;1.60;;
13807;SDS011;40769;51.512;5.494;2023-03-04T13:50:39;1.98;;;1.73;;
13807;SDS011;40769;51.512;5.494;2023-03-04T14:01:34;1.70;;;1.00;;
13807;SDS011;40769;51.512;5.494;2023-03-04T14:04:31;1.30;;;1.00;;
13807;SDS011;40769;51.512;5.494;2023-03-04T14:07:00;1.20;;;1.10;;
13807;SDS011;40769;51.512;5.494;2023-03-04T14:09:29;1.88;;;1.23;;
13807;SDS011;40769;51.512;5.494;2023-03-04T14:12:00;1.60;;;1.10;;
13807;SDS011;40769;51.512;5.494;2023-03-04T14:17:04;1.27;;;0.90;;
13807;SDS011;40769;51.512;5.494;2023-03-04T14:19:42;1.48;;;1.27;;
13807;SDS011;40769;51.512;5.494;2023-03-04T14:22:19;1.38;;;1.00;;
13807;SDS011;40769;51.512;5.494;2023-03-04T14:24:59;1.60;;;1.27;;
13807;SDS011;40769;51.512;5.494;2023-03-04T14:27:29;1.30;;;1.20;;
13807;SDS011;40769;51.512;5.494;2023-03-04T14:29:59;1.90;;;1.30;;
13807;SDS011;40769;51.512;5.494;2023-03-04T14:32:27;3.42;;;1.50;;
13807;SDS011;40769;51.512;5.494;2023-03-04T14:34:55;1.35;;;1.25;;
13807;SDS011;40769;51.512;5.494;2023-03-04T14:37:25;2.15;;;1.25;;
13807;SDS011;40769;51.512;5.494;2023-03-04T14:39:57;1.88;;;1.60;;
13807;SDS011;40769;51.512;5.494;2023-03-04T14:42:24;2.30;;;1.42;;
13807;SDS011;40769;51.512;5.494;2023-03-04T14:44:56;1.75;;;1.35;;
13807;SDS011;40769;51.512;5.494;2023-03-04T14:49:55;1.75;;;1.20;;
13807;SDS011;40769;51.512;5.494;2023-03-04T14:57:39;1.58;;;1.27;;
13807;SDS011;40769;51.512;5.494;2023-03-04T15:03:00;2.08;;;1.40;;
13807;SDS011;40769;51.512;5.494;2023-03-04T15:05:46;3.22;;;1.45;;
13807;SDS011;40769;51.512;5.494;2023-03-04T15:08:19;1.55;;;1.10;;
13807;SDS011;40769;51.512;5.494;2023-03-04T15:10:57;2.05;;;1.08;;
13807;SDS011;40769;51.512;5.494;2023-03-04T15:16:11;2.90;;;1.30;;
13807;SDS011;40769;51.512;5.494;2023-03-04T15:18:51;2.70;;;1.17;;
13807;SDS011;40769;51.512;5.494;2023-03-04T15:21:34;2.88;;;1.30;;
13807;SDS011;40769;51.512;5.494;2023-03-04T15:24:05;2.63;;;1.42;;
13807;SDS011;40769;51.512;5.494;2023-03-04T15:26:37;1.80;;;1.30;;
13807;SDS011;40769;51.512;5.494;2023-03-04T15:29:14;3.72;;;1.67;;
13807;SDS011;40769;51.512;5.494;2023-03-04T15:31:41;4.75;;;1.67;;
13807;SDS011;40769;51.512;5.494;2023-03-04T15:34:15;3.05;;;1.40;;
13807;SDS011;40769;51.512;5.494;2023-03-04T15:36:43;3.13;;;1.40;;
13807;SDS011;40769;51.512;5.494;2023-03-04T15:39:11;3.20;;;1.60;;
13807;SDS011;40769;51.512;5.494;2023-03-04T15:41:38;6.45;;;1.98;;
13807;SDS011;40769;51.512;5.494;2023-03-04T15:44:04;6.57;;;2.20;;
13807;SDS011;40769;51.512;5.494;2023-03-04T15:46:30;4.03;;;1.90;;
13807;SDS011;40769;51.512;5.494;2023-03-04T15:48:56;3.70;;;2.05;;
13807;SDS011;40769;51.512;5.494;2023-03-04T15:51:22;5.18;;;1.85;;
13807;SDS011;40769;51.512;5.494;2023-03-04T15:53:53;5.78;;;2.22;;
13807;SDS011;40769;51.512;5.494;2023-03-04T15:56:24;5.30;;;1.70;;
13807;SDS011;40769;51.512;5.494;2023-03-04T16:01:21;5.25;;;1.90;;
13807;SDS011;40769;51.512;5.494;2023-03-04T16:03:48;5.35;;;2.08;;
13807;SDS011;40769;51.512;5.494;2023-03-04T16:06:14;4.18;;;1.92;;
13807;SDS011;40769;51.512;5.494;2023-03-04T16:08:44;5.72;;;2.00;;
13807;SDS011;40769;51.512;5.494;2023-03-04T16:11:18;3.65;;;1.95;;
13807;SDS011;40769;51.512;5.494;2023-03-04T16:13:45;5.82;;;1.98;;
13807;SDS011;40769;51.512;5.494;2023-03-04T16:16:12;3.90;;;1.77;;
13807;SDS011;40769;51.512;5.494;2023-03-04T16:18:38;5.40;;;2.25;;
13807;SDS011;40769;51.512;5.494;2023-03-04T16:21:05;4.18;;;1.85;;
13807;SDS011;40769;51.512;5.494;2023-03-04T16:23:34;4.07;;;1.83;;
13807;SDS011;40769;51.512;5.494;2023-03-04T16:26:05;5.35;;;2.63;;
13807;SDS011;40769;51.512;5.494;2023-03-04T16:28:37;4.88;;;2.00;;
13807;SDS011;40769;51.512;5.494;2023-03-04T16:31:02;5.30;;;2.45;;
13807;SDS011;40769;51.512;5.494;2023-03-04T16:33:28;3.42;;;1.60;;
13807;SDS011;40769;51.512;5.494;2023-03-04T16:35:54;5.85;;;1.88;;
13807;SDS011;40769;51.512;5.494;2023-03-04T16:38:29;2.90;;;1.52;;
13807;SDS011;40769;51.512;5.494;2023-03-04T16:40:57;3.92;;;1.63;;
13807;SDS011;40769;51.512;5.494;2023-03-04T16:43:25;2.58;;;1.33;;
13807;SDS011;40769;51.512;5.494;2023-03-04T16:45:51;3.95;;;1.83;;
13807;SDS011;40769;51.512;5.494;2023-03-04T16:48:17;4.30;;;2.22;;
13807;SDS011;40769;51.512;5.494;2023-03-04T16:50:44;2.85;;;1.65;;
13807;SDS011;40769;51.512;5.494;2023-03-04T16:53:53;4.32;;;1.85;;
13807;SDS011;40769;51.512;5.494;2023-03-04T16:56:17;2.70;;;1.50;;
13807;SDS011;40769;51.512;5.494;2023-03-04T16:58:43;3.83;;;1.50;;